Wofford Heights, California
Current Conditions -  °F | °C
As of 7:54 AM on Wednesday 26 Nov 2014 (Local Time) from KBFL Reporting Station
Haze Haze  
Wind Chill: 46°   Ceiling: Unl
Heat Index: 48°   Visibility: 5mi
Dew Point: 37°   Wind: 5mph
Humidity: 66%   Direction: 140°SE
Pressure: 30.35"   Gusts: NA
Location:  35.71°N, 118.47°W
Report Text: KBFL 261554Z 14004KT 5SM HZ CLR 09/03 A3035 RMK AO2 SLP277 T00890028
Loading
Personal Weather Stations






























Interactive Weather Map New forecast layout! Learn more

10-Day Weather Forecast

Advertisements
Track Severe Weather on mobile